sensor_id;sensor_type;location;lat;lon;timestamp;pressure;altitude;pressure_sealevel;temperature;humidity
6829;BME280;17930;48.592;8.868;2023-03-11T00:00:59;95749.97;;;1.43;100.00
6829;BME280;17930;48.592;8.868;2023-03-11T00:03:27;95754.09;;;1.44;100.00
6829;BME280;17930;48.592;8.868;2023-03-11T00:05:54;95755.53;;;1.56;100.00
6829;BME280;17930;48.592;8.868;2023-03-11T00:08:24;95742.97;;;1.59;100.00
6829;BME280;17930;48.592;8.868;2023-03-11T00:10:52;95748.34;;;1.58;100.00
6829;BME280;17930;48.592;8.868;2023-03-11T00:13:19;95760.69;;;1.56;100.00
6829;BME280;17930;48.592;8.868;2023-03-11T00:15:48;95753.22;;;1.54;100.00
6829;BME280;17930;48.592;8.868;2023-03-11T00:18:55;95765.44;;;1.69;100.00
6829;BME280;17930;48.592;8.868;2023-03-11T00:21:22;95758.34;;;1.76;100.00
6829;BME280;17930;48.592;8.868;2023-03-11T00:23:49;95765.28;;;1.75;100.00
6829;BME280;17930;48.592;8.868;2023-03-11T00:26:15;95756.38;;;1.88;100.00
6829;BME280;17930;48.592;8.868;2023-03-11T00:28:42;95756.38;;;1.88;100.00
6829;BME280;17930;48.592;8.868;2023-03-11T00:31:10;95756.38;;;1.88;100.00
6829;BME280;17930;48.592;8.868;2023-03-11T00:33:37;95754.47;;;2.00;100.00
6829;BME280;17930;48.592;8.868;2023-03-11T00:36:06;95757.56;;;2.02;100.00
6829;BME280;17930;48.592;8.868;2023-03-11T00:38:33;95750.66;;;2.02;100.00
6829;BME280;17930;48.592;8.868;2023-03-11T00:40:59;95750.16;;;2.05;100.00
6829;BME280;17930;48.592;8.868;2023-03-11T00:43:27;95761.78;;;2.12;100.00
6829;BME280;17930;48.592;8.868;2023-03-11T00:45:53;95745.28;;;2.08;100.00
6829;BME280;17930;48.592;8.868;2023-03-11T00:48:20;95748.16;;;2.12;100.00
6829;BME280;17930;48.592;8.868;2023-03-11T00:50:47;95757.63;;;2.06;100.00
6829;BME280;17930;48.592;8.868;2023-03-11T00:53:16;95760.72;;;2.08;100.00
6829;BME280;17930;48.592;8.868;2023-03-11T00:55:42;95774.31;;;2.04;100.00
6829;BME280;17930;48.592;8.868;2023-03-11T00:58:10;95772.00;;;2.07;100.00
6829;BME280;17930;48.592;8.868;2023-03-11T01:00:54;95773.63;;;2.13;100.00
6829;BME280;17930;48.592;8.868;2023-03-11T01:03:21;95757.97;;;2.15;100.00
6829;BME280;17930;48.592;8.868;2023-03-11T01:05:48;95766.44;;;2.15;100.00
6829;BME280;17930;48.592;8.868;2023-03-11T01:08:16;95770.25;;;2.13;100.00
6829;BME280;17930;48.592;8.868;2023-03-11T01:10:43;95776.19;;;2.13;100.00
6829;BME280;17930;48.592;8.868;2023-03-11T01:13:09;95775.22;;;2.19;100.00
6829;BME280;17930;48.592;8.868;2023-03-11T01:15:54;95778.88;;;2.23;100.00
6829;BME280;17930;48.592;8.868;2023-03-11T01:18:22;95770.13;;;2.24;100.00
6829;BME280;17930;48.592;8.868;2023-03-11T01:20:49;95765.19;;;2.18;100.00
6829;BME280;17930;48.592;8.868;2023-03-11T01:23:18;95766.94;;;2.12;100.00
6829;BME280;17930;48.592;8.868;2023-03-11T01:25:45;95768.19;;;2.10;100.00
6829;BME280;17930;48.592;8.868;2023-03-11T01:28:11;95770.50;;;2.11;100.00
6829;BME280;17930;48.592;8.868;2023-03-11T01:30:39;95791.06;;;2.11;100.00
6829;BME280;17930;48.592;8.868;2023-03-11T01:33:08;95786.41;;;2.08;100.00
6829;BME280;17930;48.592;8.868;2023-03-11T01:35:37;95787.50;;;2.12;100.00
6829;BME280;17930;48.592;8.868;2023-03-11T01:38:06;95781.00;;;2.05;100.00
6829;BME280;17930;48.592;8.868;2023-03-11T01:40:37;95800.78;;;2.04;100.00
6829;BME280;17930;48.592;8.868;2023-03-11T01:43:06;95780.69;;;2.02;100.00
6829;BME280;17930;48.592;8.868;2023-03-11T01:45:40;95789.41;;;2.01;100.00
6829;BME280;17930;48.592;8.868;2023-03-11T01:48:08;95784.75;;;1.98;100.00
6829;BME280;17930;48.592;8.868;2023-03-11T01:50:39;95793.03;;;2.00;100.00
6829;BME280;17930;48.592;8.868;2023-03-11T01:53:07;95782.19;;;1.98;100.00
6829;BME280;17930;48.592;8.868;2023-03-11T01:55:36;95779.13;;;2.01;100.00
6829;BME280;17930;48.592;8.868;2023-03-11T01:58:05;95775.03;;;2.00;100.00
6829;BME280;17930;48.592;8.868;2023-03-11T02:00:33;95775.03;;;2.00;100.00
6829;BME280;17930;48.592;8.868;2023-03-11T02:03:07;95776.00;;;1.94;100.00
6829;BME280;17930;48.592;8.868;2023-03-11T02:05:35;95779.50;;;1.88;100.00
6829;BME280;17930;48.592;8.868;2023-03-11T02:08:03;95771.28;;;1.86;100.00
6829;BME280;17930;48.592;8.868;2023-03-11T02:10:30;95773.78;;;1.81;100.00
6829;BME280;17930;48.592;8.868;2023-03-11T02:12:59;95776.81;;;1.73;100.00
6829;BME280;17930;48.592;8.868;2023-03-11T02:15:27;95773.69;;;1.71;100.00
6829;BME280;17930;48.592;8.868;2023-03-11T02:17:55;95777.81;;;1.72;100.00
6829;BME280;17930;48.592;8.868;2023-03-11T02:20:31;95777.28;;;1.70;100.00
6829;BME280;17930;48.592;8.868;2023-03-11T02:23:02;95789.03;;;1.66;100.00
6829;BME280;17930;48.592;8.868;2023-03-11T02:25:34;95792.09;;;1.63;100.00
6829;BME280;17930;48.592;8.868;2023-03-11T02:28:07;95777.66;;;1.57;100.00
6829;BME280;17930;48.592;8.868;2023-03-11T02:30:36;95779.66;;;1.55;100.00
6829;BME280;17930;48.592;8.868;2023-03-11T02:33:05;95787.94;;;1.57;100.00
6829;BME280;17930;48.592;8.868;2023-03-11T02:35:31;95786.38;;;1.56;100.00
6829;BME280;17930;48.592;8.868;2023-03-11T02:37:58;95798.97;;;1.57;100.00
6829;BME280;17930;48.592;8.868;2023-03-11T02:40:39;95810.09;;;1.63;100.00
6829;BME280;17930;48.592;8.868;2023-03-11T02:43:09;95810.00;;;1.58;100.00
6829;BME280;17930;48.592;8.868;2023-03-11T02:45:39;95795.63;;;1.57;100.00
6829;BME280;17930;48.592;8.868;2023-03-11T02:48:07;95794.31;;;1.54;100.00
6829;BME280;17930;48.592;8.868;2023-03-11T02:50:35;95784.03;;;1.54;100.00
6829;BME280;17930;48.592;8.868;2023-03-11T02:53:03;95785.75;;;1.49;100.00
6829;BME280;17930;48.592;8.868;2023-03-11T02:55:30;95793.41;;;1.44;100.00
6829;BME280;17930;48.592;8.868;2023-03-11T02:57:57;95801.53;;;1.36;100.00
6829;BME280;17930;48.592;8.868;2023-03-11T03:00:25;95814.63;;;1.18;100.00
6829;BME280;17930;48.592;8.868;2023-03-11T03:02:52;95826.22;;;1.04;100.00
6829;BME280;17930;48.592;8.868;2023-03-11T03:05:19;95821.50;;;0.97;100.00
6829;BME280;17930;48.592;8.868;2023-03-11T03:07:47;95835.81;;;0.93;100.00
6829;BME280;17930;48.592;8.868;2023-03-11T03:10:15;95829.59;;;0.89;100.00
6829;BME280;17930;48.592;8.868;2023-03-11T03:12:42;95820.13;;;0.89;100.00
6829;BME280;17930;48.592;8.868;2023-03-11T03:15:09;95825.25;;;0.73;100.00
6829;BME280;17930;48.592;8.868;2023-03-11T03:17:38;95813.22;;;0.57;100.00
6829;BME280;17930;48.592;8.868;2023-03-11T03:20:06;95805.50;;;0.57;100.00
6829;BME280;17930;48.592;8.868;2023-03-11T03:22:36;95811.13;;;0.54;100.00
6829;BME280;17930;48.592;8.868;2023-03-11T03:25:03;95801.47;;;0.45;100.00
6829;BME280;17930;48.592;8.868;2023-03-11T03:27:30;95803.78;;;0.30;100.00
6829;BME280;17930;48.592;8.868;2023-03-11T03:29:58;95809.69;;;0.30;100.00
6829;BME280;17930;48.592;8.868;2023-03-11T03:32:27;95827.53;;;0.25;100.00
6829;BME280;17930;48.592;8.868;2023-03-11T03:34:57;95834.44;;;0.25;100.00
6829;BME280;17930;48.592;8.868;2023-03-11T03:37:24;95846.13;;;0.04;100.00
6829;BME280;17930;48.592;8.868;2023-03-11T03:39:52;95849.56;;;0.10;100.00
6829;BME280;17930;48.592;8.868;2023-03-11T03:42:19;95837.22;;;-0.04;100.00
6829;BME280;17930;48.592;8.868;2023-03-11T03:44:45;95853.31;;;-0.20;100.00
6829;BME280;17930;48.592;8.868;2023-03-11T03:47:12;95861.16;;;-0.27;100.00
6829;BME280;17930;48.592;8.868;2023-03-11T03:49:39;95858.81;;;-0.28;100.00
6829;BME280;17930;48.592;8.868;2023-03-11T03:52:07;95859.91;;;-0.24;100.00
6829;BME280;17930;48.592;8.868;2023-03-11T03:54:35;95878.72;;;-0.19;100.00
6829;BME280;17930;48.592;8.868;2023-03-11T03:57:01;95865.41;;;-0.32;100.00
6829;BME280;17930;48.592;8.868;2023-03-11T03:59:28;95862.19;;;-0.39;100.00
6829;BME280;17930;48.592;8.868;2023-03-11T04:01:55;95868.75;;;-0.43;100.00
6829;BME280;17930;48.592;8.868;2023-03-11T04:04:22;95876.19;;;-0.42;100.00
6829;BME280;17930;48.592;8.868;2023-03-11T04:06:48;95879.66;;;-0.36;100.00
6829;BME280;17930;48.592;8.868;2023-03-11T04:09:17;95879.31;;;-0.40;100.00
6829;BME280;17930;48.592;8.868;2023-03-11T04:11:44;95878.31;;;-0.50;100.00
6829;BME280;17930;48.592;8.868;2023-03-11T04:14:10;95883.91;;;-0.53;100.00
6829;BME280;17930;48.592;8.868;2023-03-11T04:16:37;95888.81;;;-0.63;100.00
6829;BME280;17930;48.592;8.868;2023-03-11T04:19:04;95892.59;;;-0.77;100.00
6829;BME280;17930;48.592;8.868;2023-03-11T04:21:31;95882.69;;;-0.85;100.00
6829;BME280;17930;48.592;8.868;2023-03-11T04:23:58;95879.34;;;-0.85;100.00
6829;BME280;17930;48.592;8.868;2023-03-11T04:26:26;95886.47;;;-0.76;100.00
6829;BME280;17930;48.592;8.868;2023-03-11T04:28:53;95887.25;;;-0.64;100.00
6829;BME280;17930;48.592;8.868;2023-03-11T04:31:19;95880.44;;;-0.47;100.00
6829;BME280;17930;48.592;8.868;2023-03-11T04:33:46;95877.41;;;-0.44;100.00
6829;BME280;17930;48.592;8.868;2023-03-11T04:36:13;95869.19;;;-0.46;100.00
6829;BME280;17930;48.592;8.868;2023-03-11T04:38:39;95868.75;;;-0.43;100.00
6829;BME280;17930;48.592;8.868;2023-03-11T04:41:06;95875.09;;;-0.46;100.00
6829;BME280;17930;48.592;8.868;2023-03-11T04:43:34;95868.78;;;-0.66;100.00
6829;BME280;17930;48.592;8.868;2023-03-11T04:46:01;95876.34;;;-0.71;100.00
6829;BME280;17930;48.592;8.868;2023-03-11T04:48:30;95881.69;;;-0.84;100.00
6829;BME280;17930;48.592;8.868;2023-03-11T04:50:57;95880.47;;;-0.93;100.00
6829;BME280;17930;48.592;8.868;2023-03-11T04:53:23;95894.00;;;-1.03;100.00
6829;BME280;17930;48.592;8.868;2023-03-11T04:55:50;95899.81;;;-0.97;100.00
6829;BME280;17930;48.592;8.868;2023-03-11T04:58:18;95900.56;;;-0.96;100.00
6829;BME280;17930;48.592;8.868;2023-03-11T05:00:52;95897.16;;;-1.02;100.00
6829;BME280;17930;48.592;8.868;2023-03-11T05:03:20;95892.25;;;-1.14;100.00
6829;BME280;17930;48.592;8.868;2023-03-11T05:05:47;95889.69;;;-1.14;100.00
6829;BME280;17930;48.592;8.868;2023-03-11T05:08:14;95894.34;;;-1.11;100.00
6829;BME280;17930;48.592;8.868;2023-03-11T05:10:40;95901.56;;;-1.20;100.00
6829;BME280;17930;48.592;8.868;2023-03-11T05:13:08;95908.78;;;-1.28;100.00
6829;BME280;17930;48.592;8.868;2023-03-11T05:15:35;95908.53;;;-1.38;100.00
6829;BME280;17930;48.592;8.868;2023-03-11T05:18:03;95904.88;;;-1.60;100.00
6829;BME280;17930;48.592;8.868;2023-03-11T05:20:30;95906.63;;;-1.72;100.00
6829;BME280;17930;48.592;8.868;2023-03-11T05:22:57;95911.25;;;-1.80;100.00
6829;BME280;17930;48.592;8.868;2023-03-11T05:25:24;95916.44;;;-1.87;100.00
6829;BME280;17930;48.592;8.868;2023-03-11T05:27:51;95924.09;;;-1.69;100.00
6829;BME280;17930;48.592;8.868;2023-03-11T05:30:21;95921.72;;;-1.52;100.00
6829;BME280;17930;48.592;8.868;2023-03-11T05:32:48;95924.06;;;-1.51;100.00
6829;BME280;17930;48.592;8.868;2023-03-11T05:35:16;95922.81;;;-1.49;100.00
6829;BME280;17930;48.592;8.868;2023-03-11T05:37:43;95920.19;;;-1.42;100.00
6829;BME280;17930;48.592;8.868;2023-03-11T05:42:44;95906.28;;;-1.46;100.00
6829;BME280;17930;48.592;8.868;2023-03-11T05:45:10;95908.56;;;-1.56;100.00
6829;BME280;17930;48.592;8.868;2023-03-11T05:47:37;95902.66;;;-1.68;100.00
6829;BME280;17930;48.592;8.868;2023-03-11T05:50:07;95907.50;;;-1.78;100.00
6829;BME280;17930;48.592;8.868;2023-03-11T05:52:35;95916.16;;;-1.97;100.00
6829;BME280;17930;48.592;8.868;2023-03-11T05:55:02;95921.00;;;-2.06;100.00
6829;BME280;17930;48.592;8.868;2023-03-11T05:57:29;95917.34;;;-2.10;100.00
6829;BME280;17930;48.592;8.868;2023-03-11T05:59:56;95925.19;;;-1.94;100.00
6829;BME280;17930;48.592;8.868;2023-03-11T06:02:22;95925.50;;;-1.73;100.00
6829;BME280;17930;48.592;8.868;2023-03-11T06:04:49;95928.13;;;-1.50;100.00
6829;BME280;17930;48.592;8.868;2023-03-11T06:07:16;95921.41;;;-1.33;100.00
6829;BME280;17930;48.592;8.868;2023-03-11T06:09:44;95921.22;;;-1.20;100.00
6829;BME280;17930;48.592;8.868;2023-03-11T06:12:10;95921.81;;;-1.18;100.00
6829;BME280;17930;48.592;8.868;2023-03-11T06:14:37;95922.34;;;-1.16;100.00
6829;BME280;17930;48.592;8.868;2023-03-11T06:17:04;95934.13;;;-1.15;100.00
6829;BME280;17930;48.592;8.868;2023-03-11T06:19:30;95930.13;;;-1.23;100.00
6829;BME280;17930;48.592;8.868;2023-03-11T06:21:57;95930.75;;;-1.27;100.00
6829;BME280;17930;48.592;8.868;2023-03-11T06:24:24;95928.09;;;-1.32;100.00
6829;BME280;17930;48.592;8.868;2023-03-11T06:26:52;95927.34;;;-1.21;100.00
6829;BME280;17930;48.592;8.868;2023-03-11T06:29:19;95929.38;;;-0.89;100.00
6829;BME280;17930;48.592;8.868;2023-03-11T06:31:48;95930.88;;;-0.82;100.00
6829;BME280;17930;48.592;8.868;2023-03-11T06:34:15;95934.09;;;-0.63;100.00
6829;BME280;17930;48.592;8.868;2023-03-11T06:36:42;95942.09;;;-0.71;100.00
6829;BME280;17930;48.592;8.868;2023-03-11T06:39:12;95947.66;;;-0.52;100.00
6829;BME280;17930;48.592;8.868;2023-03-11T06:41:39;95956.00;;;-0.22;100.00
6829;BME280;17930;48.592;8.868;2023-03-11T06:44:08;95951.44;;;-0.08;100.00
6829;BME280;17930;48.592;8.868;2023-03-11T06:46:34;95963.03;;;0.33;100.00
6829;BME280;17930;48.592;8.868;2023-03-11T06:49:01;95972.16;;;0.68;100.00
6829;BME280;17930;48.592;8.868;2023-03-11T06:51:28;95975.94;;;0.94;100.00
6829;BME280;17930;48.592;8.868;2023-03-11T06:53:55;95980.16;;;1.00;100.00
6829;BME280;17930;48.592;8.868;2023-03-11T06:56:22;95979.78;;;1.07;100.00
6829;BME280;17930;48.592;8.868;2023-03-11T06:58:49;95977.53;;;1.27;100.00
6829;BME280;17930;48.592;8.868;2023-03-11T07:01:19;95970.97;;;1.03;100.00
6829;BME280;17930;48.592;8.868;2023-03-11T07:03:47;95969.50;;;1.07;100.00
6829;BME280;17930;48.592;8.868;2023-03-11T07:06:16;95975.09;;;1.04;100.00
6829;BME280;17930;48.592;8.868;2023-03-11T07:08:43;95986.38;;;1.20;100.00
6829;BME280;17930;48.592;8.868;2023-03-11T07:11:13;96001.47;;;1.16;100.00
6829;BME280;17930;48.592;8.868;2023-03-11T07:13:41;96004.28;;;1.31;100.00
6829;BME280;17930;48.592;8.868;2023-03-11T07:16:10;96006.31;;;1.78;100.00
6829;BME280;17930;48.592;8.868;2023-03-11T07:18:38;95999.72;;;1.33;100.00
6829;BME280;17930;48.592;8.868;2023-03-11T07:21:06;96006.00;;;1.42;100.00
6829;BME280;17930;48.592;8.868;2023-03-11T07:23:34;96004.84;;;1.50;100.00
6829;BME280;17930;48.592;8.868;2023-03-11T07:26:01;96007.31;;;1.61;100.00
6829;BME280;17930;48.592;8.868;2023-03-11T07:28:28;96014.94;;;1.89;100.00
6829;BME280;17930;48.592;8.868;2023-03-11T07:30:55;96019.31;;;1.72;100.00
6829;BME280;17930;48.592;8.868;2023-03-11T07:33:22;96022.06;;;1.65;100.00
6829;BME280;17930;48.592;8.868;2023-03-11T07:35:51;96024.31;;;1.62;100.00
6829;BME280;17930;48.592;8.868;2023-03-11T07:38:18;96019.88;;;1.74;100.00
6829;BME280;17930;48.592;8.868;2023-03-11T07:40:45;96017.22;;;1.69;100.00
6829;BME280;17930;48.592;8.868;2023-03-11T07:43:12;96014.28;;;1.77;100.00
6829;BME280;17930;48.592;8.868;2023-03-11T07:45:38;96019.75;;;2.39;100.00
6829;BME280;17930;48.592;8.868;2023-03-11T07:48:05;96014.75;;;3.49;100.00
6829;BME280;17930;48.592;8.868;2023-03-11T07:50:32;96022.28;;;4.89;100.00
6829;BME280;17930;48.592;8.868;2023-03-11T07:52:59;96013.06;;;5.37;100.00
6829;BME280;17930;48.592;8.868;2023-03-11T07:55:26;96019.31;;;6.01;100.00
6829;BME280;17930;48.592;8.868;2023-03-11T07:57:53;96015.59;;;6.51;100.00
6829;BME280;17930;48.592;8.868;2023-03-11T08:00:20;96014.09;;;5.56;100.00
6829;BME280;17930;48.592;8.868;2023-03-11T08:02:46;96022.63;;;4.51;100.00
6829;BME280;17930;48.592;8.868;2023-03-11T08:05:13;96025.56;;;4.18;100.00
6829;BME280;17930;48.592;8.868;2023-03-11T08:07:40;96024.09;;;4.37;100.00
6829;BME280;17930;48.592;8.868;2023-03-11T08:10:09;96031.13;;;5.32;100.00
6829;BME280;17930;48.592;8.868;2023-03-11T08:12:36;96019.50;;;6.34;100.00
6829;BME280;17930;48.592;8.868;2023-03-11T08:15:03;96023.94;;;5.54;100.00
6829;BME280;17930;48.592;8.868;2023-03-11T08:17:29;96026.50;;;5.24;100.00
6829;BME280;17930;48.592;8.868;2023-03-11T08:19:56;96012.97;;;7.52;100.00
6829;BME280;17930;48.592;8.868;2023-03-11T08:22:23;96021.84;;;7.79;100.00
6829;BME280;17930;48.592;8.868;2023-03-11T08:24:50;96023.16;;;6.96;100.00
6829;BME280;17930;48.592;8.868;2023-03-11T08:27:18;96043.03;;;5.33;100.00
6829;BME280;17930;48.592;8.868;2023-03-11T08:29:45;96034.66;;;6.75;100.00
6829;BME280;17930;48.592;8.868;2023-03-11T08:32:12;96036.59;;;6.35;100.00
6829;BME280;17930;48.592;8.868;2023-03-11T08:34:39;96034.88;;;7.36;100.00
6829;BME280;17930;48.592;8.868;2023-03-11T08:37:05;96030.31;;;8.51;100.00
6829;BME280;17930;48.592;8.868;2023-03-11T08:39:32;96041.44;;;9.21;94.61
6829;BME280;17930;48.592;8.868;2023-03-11T08:41:59;96038.16;;;8.69;100.00
6829;BME280;17930;48.592;8.868;2023-03-11T08:44:27;96047.94;;;9.01;95.27
6829;BME280;17930;48.592;8.868;2023-03-11T08:46:53;96042.63;;;8.08;94.28
6829;BME280;17930;48.592;8.868;2023-03-11T08:49:20;96043.75;;;7.68;95.33
6829;BME280;17930;48.592;8.868;2023-03-11T08:51:47;96039.41;;;7.59;97.26
6829;BME280;17930;48.592;8.868;2023-03-11T08:54:13;96046.59;;;7.24;96.44
6829;BME280;17930;48.592;8.868;2023-03-11T08:56:40;96052.38;;;5.54;100.00
6829;BME280;17930;48.592;8.868;2023-03-11T08:59:07;96051.63;;;6.08;100.00
6829;BME280;17930;48.592;8.868;2023-03-11T09:01:35;96044.16;;;5.97;100.00
6829;BME280;17930;48.592;8.868;2023-03-11T09:04:01;96046.41;;;5.39;100.00
6829;BME280;17930;48.592;8.868;2023-03-11T09:06:28;96049.25;;;6.31;100.00
6829;BME280;17930;48.592;8.868;2023-03-11T09:08:55;96044.03;;;9.21;97.59
6829;BME280;17930;48.592;8.868;2023-03-11T09:11:22;96034.53;;;11.02;88.21
6829;BME280;17930;48.592;8.868;2023-03-11T09:13:48;96026.19;;;12.19;74.49
6829;BME280;17930;48.592;8.868;2023-03-11T09:16:17;96040.00;;;12.80;71.09
6829;BME280;17930;48.592;8.868;2023-03-11T09:18:45;96045.13;;;13.57;64.67
6829;BME280;17930;48.592;8.868;2023-03-11T09:21:12;96052.91;;;11.59;63.36
6829;BME280;17930;48.592;8.868;2023-03-11T09:23:39;96049.00;;;9.91;71.37
6829;BME280;17930;48.592;8.868;2023-03-11T09:26:06;96060.19;;;8.25;69.29
6829;BME280;17930;48.592;8.868;2023-03-11T09:28:32;96063.09;;;9.35;78.20
6829;BME280;17930;48.592;8.868;2023-03-11T09:30:59;96056.25;;;11.24;70.07
6829;BME280;17930;48.592;8.868;2023-03-11T09:33:26;96047.50;;;12.34;71.14
6829;BME280;17930;48.592;8.868;2023-03-11T09:35:54;96048.19;;;12.05;61.82
6829;BME280;17930;48.592;8.868;2023-03-11T09:38:20;96047.59;;;10.62;62.17
6829;BME280;17930;48.592;8.868;2023-03-11T09:40:57;96057.19;;;9.30;64.99
6829;BME280;17930;48.592;8.868;2023-03-11T09:43:34;96063.41;;;8.13;67.35
6829;BME280;17930;48.592;8.868;2023-03-11T09:46:20;96050.13;;;9.85;71.22
6829;BME280;17930;48.592;8.868;2023-03-11T09:48:54;96049.22;;;10.98;66.61
6829;BME280;17930;48.592;8.868;2023-03-11T09:51:28;96066.81;;;10.03;61.16
6829;BME280;17930;48.592;8.868;2023-03-11T09:54:02;96059.28;;;9.46;65.93
6829;BME280;17930;48.592;8.868;2023-03-11T09:56:30;96056.63;;;9.88;66.99
6829;BME280;17930;48.592;8.868;2023-03-11T09:59:01;96058.16;;;9.16;67.67
6829;BME280;17930;48.592;8.868;2023-03-11T10:01:33;96060.00;;;8.45;70.17
6829;BME280;17930;48.592;8.868;2023-03-11T10:04:03;96062.41;;;7.70;70.53
6829;BME280;17930;48.592;8.868;2023-03-11T10:06:35;96068.22;;;7.91;74.47
6829;BME280;17930;48.592;8.868;2023-03-11T10:09:19;96068.63;;;7.74;72.25
6829;BME280;17930;48.592;8.868;2023-03-11T10:11:59;96063.06;;;7.48;72.58
6829;BME280;17930;48.592;8.868;2023-03-11T10:14:54;96064.72;;;7.77;70.77
6829;BME280;17930;48.592;8.868;2023-03-11T10:17:49;96069.19;;;10.18;67.82
6829;BME280;17930;48.592;8.868;2023-03-11T10:20:21;96062.88;;;12.14;61.62
6829;BME280;17930;48.592;8.868;2023-03-11T10:23:01;96054.91;;;14.07;57.13
6829;BME280;17930;48.592;8.868;2023-03-11T10:25:44;96064.59;;;13.09;55.41
6829;BME280;17930;48.592;8.868;2023-03-11T10:28:17;96045.34;;;11.93;57.66
6829;BME280;17930;48.592;8.868;2023-03-11T10:30:46;96054.50;;;11.82;59.53
6829;BME280;17930;48.592;8.868;2023-03-11T10:33:20;96047.34;;;13.00;57.05
6829;BME280;17930;48.592;8.868;2023-03-11T10:35:51;96046.78;;;13.11;56.79
6829;BME280;17930;48.592;8.868;2023-03-11T10:38:23;96035.47;;;14.00;56.89
6829;BME280;17930;48.592;8.868;2023-03-11T10:40:54;96036.22;;;15.45;53.70
6829;BME280;17930;48.592;8.868;2023-03-11T10:43:26;96049.50;;;13.70;51.25
6829;BME280;17930;48.592;8.868;2023-03-11T10:45:54;96047.31;;;13.97;51.98
6829;BME280;17930;48.592;8.868;2023-03-11T10:48:21;96046.06;;;14.45;50.82
6829;BME280;17930;48.592;8.868;2023-03-11T10:50:53;96033.31;;;15.38;50.36
6829;BME280;17930;48.592;8.868;2023-03-11T10:53:21;96036.38;;;16.22;48.52
6829;BME280;17930;48.592;8.868;2023-03-11T10:55:50;96055.00;;;15.76;46.20
6829;BME280;17930;48.592;8.868;2023-03-11T10:58:19;96058.94;;;16.23;44.81
6829;BME280;17930;48.592;8.868;2023-03-11T11:00:58;96043.34;;;15.65;47.69
6829;BME280;17930;48.592;8.868;2023-03-11T11:03:25;96048.50;;;16.91;45.86
6829;BME280;17930;48.592;8.868;2023-03-11T11:05:57;96056.53;;;17.77;44.71
6829;BME280;17930;48.592;8.868;2023-03-11T11:08:26;96057.44;;;16.01;44.90
6829;BME280;17930;48.592;8.868;2023-03-11T11:10:54;96043.28;;;14.87;46.42
6829;BME280;17930;48.592;8.868;2023-03-11T11:13:23;96056.69;;;14.40;46.59
6829;BME280;17930;48.592;8.868;2023-03-11T11:15:53;96045.53;;;14.60;47.57
6829;BME280;17930;48.592;8.868;2023-03-11T11:18:22;96047.78;;;13.82;49.79
6829;BME280;17930;48.592;8.868;2023-03-11T11:20:54;96046.19;;;14.49;48.41
6829;BME280;17930;48.592;8.868;2023-03-11T11:23:26;96047.75;;;14.87;47.69
6829;BME280;17930;48.592;8.868;2023-03-11T11:25:57;96038.34;;;14.40;48.57
6829;BME280;17930;48.592;8.868;2023-03-11T11:28:25;96040.09;;;15.39;48.32
6829;BME280;17930;48.592;8.868;2023-03-11T11:30:54;96045.50;;;16.04;47.10
6829;BME280;17930;48.592;8.868;2023-03-11T11:33:24;96040.19;;;15.51;47.06
6829;BME280;17930;48.592;8.868;2023-03-11T11:35:54;96044.56;;;14.73;46.79
6829;BME280;17930;48.592;8.868;2023-03-11T11:38:22;96053.53;;;15.09;44.61
6829;BME280;17930;48.592;8.868;2023-03-11T11:40:52;96036.66;;;15.68;45.07
6829;BME280;17930;48.592;8.868;2023-03-11T11:43:25;96039.75;;;14.84;44.23
6829;BME280;17930;48.592;8.868;2023-03-11T11:46:00;96031.00;;;12.94;45.98
6829;BME280;17930;48.592;8.868;2023-03-11T11:48:32;96022.16;;;11.70;48.80
6829;BME280;17930;48.592;8.868;2023-03-11T11:51:05;96021.19;;;12.39;50.80
6829;BME280;17930;48.592;8.868;2023-03-11T11:53:39;96028.16;;;14.39;48.24
6829;BME280;17930;48.592;8.868;2023-03-11T11:56:09;96032.31;;;13.14;48.14
6829;BME280;17930;48.592;8.868;2023-03-11T11:58:38;96019.25;;;11.58;50.63
6829;BME280;17930;48.592;8.868;2023-03-11T12:01:13;96020.03;;;12.24;51.42
6829;BME280;17930;48.592;8.868;2023-03-11T12:03:55;96030.53;;;13.82;49.65
6829;BME280;17930;48.592;8.868;2023-03-11T12:06:29;96026.03;;;15.64;48.24
6829;BME280;17930;48.592;8.868;2023-03-11T12:09:03;96033.16;;;15.06;45.88
6829;BME280;17930;48.592;8.868;2023-03-11T12:11:38;96023.84;;;15.66;45.32
6829;BME280;17930;48.592;8.868;2023-03-11T12:14:12;96027.34;;;14.55;45.61
6829;BME280;17930;48.592;8.868;2023-03-11T12:16:46;96012.03;;;15.03;46.44
6829;BME280;17930;48.592;8.868;2023-03-11T12:19:22;95994.22;;;16.10;45.65
6829;BME280;17930;48.592;8.868;2023-03-11T12:22:25;96006.91;;;16.84;43.82
6829;BME280;17930;48.592;8.868;2023-03-11T12:25:19;95997.78;;;16.82;44.49
6829;BME280;17930;48.592;8.868;2023-03-11T12:27:55;95990.88;;;16.65;43.94
6829;BME280;17930;48.592;8.868;2023-03-11T12:30:25;95984.97;;;15.92;45.48
6829;BME280;17930;48.592;8.868;2023-03-11T12:32:58;95991.63;;;16.78;45.08
6829;BME280;17930;48.592;8.868;2023-03-11T12:35:29;95997.38;;;16.24;43.74
6829;BME280;17930;48.592;8.868;2023-03-11T12:38:03;95998.00;;;16.21;43.90
6829;BME280;17930;48.592;8.868;2023-03-11T12:40:45;95993.63;;;16.81;43.37
6829;BME280;17930;48.592;8.868;2023-03-11T12:46:20;96005.84;;;17.72;40.86
6829;BME280;17930;48.592;8.868;2023-03-11T12:48:47;95986.63;;;15.96;42.65
6829;BME280;17930;48.592;8.868;2023-03-11T12:51:37;95984.75;;;16.85;43.04
6829;BME280;17930;48.592;8.868;2023-03-11T12:54:26;95982.84;;;16.18;41.86
6829;BME280;17930;48.592;8.868;2023-03-11T12:56:56;95981.22;;;17.29;42.63
6829;BME280;17930;48.592;8.868;2023-03-11T13:00:02;95975.72;;;16.50;42.24
6829;BME280;17930;48.592;8.868;2023-03-11T13:02:59;95987.13;;;16.54;40.61
6829;BME280;17930;48.592;8.868;2023-03-11T13:05:49;95969.91;;;16.81;42.30
6829;BME280;17930;48.592;8.868;2023-03-11T13:08:20;95956.47;;;15.94;44.38
6829;BME280;17930;48.592;8.868;2023-03-11T13:10:49;95958.81;;;16.63;42.81
6829;BME280;17930;48.592;8.868;2023-03-11T13:13:31;95973.16;;;17.49;41.75
6829;BME280;17930;48.592;8.868;2023-03-11T13:16:34;95976.59;;;17.26;42.22
6829;BME280;17930;48.592;8.868;2023-03-11T13:19:37;95978.69;;;15.64;43.82
6829;BME280;17930;48.592;8.868;2023-03-11T13:22:40;95982.44;;;13.61;44.63
6829;BME280;17930;48.592;8.868;2023-03-11T13:25:31;95969.78;;;12.05;46.99
6829;BME280;17930;48.592;8.868;2023-03-11T13:28:17;95975.75;;;11.97;47.68
6829;BME280;17930;48.592;8.868;2023-03-11T13:30:50;95976.47;;;11.89;49.85